createdAt,value
2022-11-01T00:02:10.453Z,6.57
2022-11-01T00:04:37.534Z,6.25
2022-11-01T00:07:04.632Z,6.50
2022-11-01T00:09:31.724Z,6.50
2022-11-01T00:11:59.355Z,6.75
2022-11-01T00:14:26.687Z,6.38
2022-11-01T00:16:53.805Z,6.40
2022-11-01T00:19:20.941Z,6.60
2022-11-01T00:21:48.107Z,6.63
2022-11-01T00:24:15.224Z,7.03
2022-11-01T00:26:42.404Z,6.85
2022-11-01T00:29:09.550Z,7.13
2022-11-01T00:31:36.628Z,7.20
2022-11-01T00:34:06.883Z,8.02
2022-11-01T00:36:35.940Z,7.10
2022-11-01T00:39:03.987Z,7.97
2022-11-01T00:41:31.427Z,8.88
2022-11-01T00:43:58.565Z,9.93
2022-11-01T00:46:26.241Z,8.95
2022-11-01T00:48:53.272Z,8.32
2022-11-01T00:51:20.375Z,8.15
2022-11-01T00:53:47.431Z,9.40
2022-11-01T00:56:14.615Z,7.95
2022-11-01T00:58:41.748Z,8.75
2022-11-01T01:01:09.479Z,7.78
2022-11-01T01:03:36.889Z,8.68
2022-11-01T01:06:04.257Z,8.30
2022-11-01T01:08:31.450Z,8.80
2022-11-01T01:10:58.553Z,9.35
2022-11-01T01:13:25.812Z,9.27
2022-11-01T01:15:52.892Z,9.40
2022-11-01T01:18:20.081Z,8.98
2022-11-01T01:20:47.130Z,8.80
2022-11-01T01:23:14.182Z,9.07
2022-11-01T01:25:42.777Z,9.52
2022-11-01T01:28:10.576Z,9.50
2022-11-01T01:30:41.499Z,9.63
2022-11-01T01:33:09.725Z,9.60
2022-11-01T01:35:39.040Z,8.98
2022-11-01T01:38:07.639Z,8.98
2022-11-01T01:40:35.764Z,8.90
2022-11-01T01:43:03.171Z,8.88
2022-11-01T01:45:38.282Z,9.85
2022-11-01T01:48:26.367Z,10.02
2022-11-01T01:51:02.568Z,9.55
2022-11-01T01:53:37.242Z,9.50
2022-11-01T01:56:13.442Z,9.02
2022-11-01T01:58:49.838Z,9.55
2022-11-01T02:01:17.356Z,9.40
2022-11-01T02:03:45.200Z,10.02
2022-11-01T02:06:14.715Z,9.30
2022-11-01T02:08:56.383Z,9.57
2022-11-01T02:11:23.861Z,9.82
2022-11-01T02:13:51.138Z,9.57
2022-11-01T02:16:42.797Z,9.88
2022-11-01T02:19:24.884Z,10.00
2022-11-01T02:22:18.596Z,10.90
2022-11-01T02:24:54.421Z,9.82
2022-11-01T02:30:21.492Z,9.88
2022-11-01T02:33:28.469Z,9.90
2022-11-01T02:36:23.033Z,10.70
2022-11-01T02:39:01.980Z,10.60
2022-11-01T02:41:45.117Z,11.15
2022-11-01T02:44:22.520Z,10.57
2022-11-01T02:47:01.942Z,11.43
2022-11-01T02:49:49.123Z,11.88
2022-11-01T02:52:22.538Z,10.77
2022-11-01T02:54:59.216Z,13.00
2022-11-01T02:57:41.282Z,10.35
2022-11-01T03:00:37.802Z,9.70
2022-11-01T03:03:34.906Z,9.52
2022-11-01T03:06:05.131Z,11.85
2022-11-01T03:08:44.880Z,10.73
2022-11-01T03:11:26.521Z,11.05
2022-11-01T03:14:14.708Z,10.05
2022-11-01T03:17:00.439Z,10.80
2022-11-01T03:19:45.548Z,10.35
2022-11-01T03:23:02.867Z,10.30
2022-11-01T03:25:44.289Z,9.32
2022-11-01T03:28:28.077Z,9.55
2022-11-01T03:31:09.522Z,10.30
2022-11-01T03:33:44.930Z,10.60
2022-11-01T03:36:18.197Z,9.98
2022-11-01T03:39:02.227Z,10.35
2022-11-01T03:41:36.119Z,10.63
2022-11-01T03:44:04.559Z,10.32
2022-11-01T03:46:31.907Z,9.85
2022-11-01T03:49:01.851Z,11.07
2022-11-01T03:51:29.029Z,10.63
2022-11-01T03:53:56.160Z,11.13
2022-11-01T03:56:23.215Z,10.95
2022-11-01T03:58:50.319Z,11.02
2022-11-01T04:01:18.492Z,10.30
2022-11-01T04:03:45.991Z,10.93
2022-11-01T04:06:13.238Z,11.55
2022-11-01T04:08:40.537Z,10.68
2022-11-01T04:11:07.880Z,10.50
2022-11-01T04:13:35.023Z,10.40
2022-11-01T04:16:21.023Z,10.95
2022-11-01T04:19:06.605Z,11.70
2022-11-01T04:21:33.821Z,11.90
2022-11-01T04:24:00.939Z,12.23
2022-11-01T04:26:28.083Z,11.65
2022-11-01T04:28:59.146Z,10.65
2022-11-01T04:31:35.948Z,10.98
2022-11-01T04:34:05.328Z,12.45
2022-11-01T04:36:32.415Z,12.13
2022-11-01T04:38:59.786Z,13.68
2022-11-01T04:41:29.477Z,11.45
2022-11-01T04:43:59.055Z,11.50
2022-11-01T04:46:29.366Z,12.25
2022-11-01T04:48:56.610Z,11.48
2022-11-01T04:51:23.690Z,11.40
2022-11-01T04:53:50.743Z,12.70
2022-11-01T04:56:17.811Z,12.32
2022-11-01T04:58:46.337Z,11.93
2022-11-01T05:01:15.000Z,11.85
2022-11-01T05:03:43.274Z,12.32
2022-11-01T05:06:10.499Z,12.27
2022-11-01T05:08:37.738Z,11.77
2022-11-01T05:11:04.931Z,12.35
2022-11-01T05:13:32.285Z,11.88
2022-11-01T05:16:18.836Z,11.10
2022-11-01T05:18:47.126Z,11.73
2022-11-01T05:21:14.228Z,11.30
2022-11-01T05:23:41.308Z,10.90
2022-11-01T05:26:08.424Z,11.70
2022-11-01T05:28:35.479Z,12.82
2022-11-01T05:31:02.704Z,13.23
2022-11-01T05:33:29.814Z,12.90
2022-11-01T05:35:56.847Z,13.48
2022-11-01T05:38:25.007Z,12.65
2022-11-01T05:40:52.054Z,13.30
2022-11-01T05:43:19.083Z,12.60
2022-11-01T05:45:46.104Z,12.10
2022-11-01T05:48:13.228Z,12.45
2022-11-01T05:50:40.307Z,13.32
2022-11-01T05:53:09.099Z,13.25
2022-11-01T05:55:36.862Z,12.95
2022-11-01T05:58:04.945Z,13.90
2022-11-01T06:00:33.932Z,12.98
2022-11-01T06:03:02.195Z,14.23
2022-11-01T06:05:30.829Z,13.10
2022-11-01T06:08:00.619Z,14.30
2022-11-01T06:10:28.508Z,12.38
2022-11-01T06:12:55.724Z,12.20
2022-11-01T06:15:23.318Z,13.98
2022-11-01T06:17:57.652Z,12.85
2022-11-01T06:20:27.993Z,13.52
2022-11-01T06:22:55.528Z,13.82
2022-11-01T06:25:22.854Z,13.60
2022-11-01T06:27:50.160Z,14.02
2022-11-01T06:30:17.574Z,13.90
2022-11-01T06:32:44.720Z,13.45
2022-11-01T06:35:12.102Z,14.07
2022-11-01T06:37:39.983Z,14.13
2022-11-01T06:40:08.441Z,13.77
2022-11-01T06:42:35.496Z,13.95
2022-11-01T06:45:02.663Z,13.65
2022-11-01T06:47:29.847Z,14.57
2022-11-01T06:49:56.933Z,13.98
2022-11-01T06:52:23.992Z,14.10
2022-11-01T06:54:51.060Z,16.33
2022-11-01T06:57:18.426Z,14.43
2022-11-01T06:59:45.494Z,14.90
2022-11-01T07:02:14.666Z,15.02
2022-11-01T07:04:42.470Z,14.32
2022-11-01T07:07:09.565Z,14.20
2022-11-01T07:09:36.645Z,14.23
2022-11-01T07:12:04.059Z,14.77
2022-11-01T07:14:31.297Z,14.05
2022-11-01T07:17:01.123Z,14.25
2022-11-01T07:19:28.224Z,14.05
2022-11-01T07:21:55.290Z,14.40
2022-11-01T07:24:22.505Z,14.80
2022-11-01T07:26:49.596Z,14.20
2022-11-01T07:29:16.857Z,14.15
2022-11-01T07:31:43.996Z,13.02
2022-11-01T07:34:11.106Z,12.88
2022-11-01T07:36:38.235Z,13.75
2022-11-01T07:39:05.673Z,13.73
2022-11-01T07:41:32.787Z,13.88
2022-11-01T07:43:59.848Z,13.30
2022-11-01T07:46:26.929Z,14.13
2022-11-01T07:48:53.986Z,13.85
2022-11-01T07:51:21.116Z,12.45
2022-11-01T07:53:48.183Z,13.30
2022-11-01T07:56:15.346Z,12.93
2022-11-01T07:58:43.677Z,13.32
2022-11-01T08:01:11.443Z,13.57
2022-11-01T08:03:38.794Z,12.85
2022-11-01T08:06:06.570Z,13.13
2022-11-01T08:08:33.672Z,12.88
2022-11-01T08:11:03.783Z,13.35
2022-11-01T08:13:31.175Z,12.95
2022-11-01T08:16:04.612Z,12.90
2022-11-01T08:18:31.669Z,12.77
2022-11-01T08:20:59.963Z,14.07
2022-11-01T08:23:27.015Z,13.55
2022-11-01T08:25:54.086Z,13.38
2022-11-01T08:28:22.672Z,13.57
2022-11-01T08:30:50.706Z,14.82
2022-11-01T08:33:17.780Z,13.73
2022-11-01T08:35:50.080Z,15.30
2022-11-01T08:38:18.157Z,14.23
2022-11-01T08:40:45.292Z,14.50
2022-11-01T08:43:12.350Z,16.25
2022-11-01T08:45:40.334Z,15.43
2022-11-01T08:48:09.062Z,17.05
2022-11-01T08:50:36.658Z,17.77
2022-11-01T08:53:12.671Z,16.98
2022-11-01T08:55:40.580Z,15.32
2022-11-01T08:58:08.757Z,14.65
2022-11-01T09:00:36.583Z,15.40
2022-11-01T09:03:04.399Z,13.93
2022-11-01T09:05:31.667Z,14.88
2022-11-01T09:08:01.559Z,13.98
2022-11-01T09:10:30.932Z,13.05
2022-11-01T09:13:02.528Z,12.43
2022-11-01T09:15:30.845Z,13.63
2022-11-01T09:17:58.072Z,13.00
2022-11-01T09:20:26.566Z,12.65
2022-11-01T09:22:53.640Z,12.45
2022-11-01T09:25:20.720Z,11.85
2022-11-01T09:27:47.800Z,11.60
2022-11-01T09:30:14.910Z,10.73
2022-11-01T09:32:42.018Z,11.40
2022-11-01T09:35:09.281Z,10.93
2022-11-01T09:37:36.470Z,12.57
2022-11-01T09:40:04.571Z,12.65
2022-11-01T09:42:39.872Z,11.35
2022-11-01T09:45:19.907Z,11.40
2022-11-01T09:47:52.957Z,11.32
2022-11-01T09:50:30.644Z,11.60
2022-11-01T09:52:58.263Z,11.77
2022-11-01T09:56:10.153Z,12.65
2022-11-01T09:58:55.326Z,11.07
2022-11-01T10:02:07.239Z,11.55
2022-11-01T10:05:07.278Z,11.40
2022-11-01T10:08:01.676Z,12.85
2022-11-01T10:10:39.640Z,11.38
2022-11-01T10:13:19.382Z,12.70
2022-11-01T10:16:01.817Z,11.27
2022-11-01T10:18:30.061Z,11.68
2022-11-01T10:21:05.053Z,13.90
2022-11-01T10:23:48.724Z,15.38
2022-11-01T10:26:29.062Z,16.02
2022-11-01T10:29:12.798Z,15.57
2022-11-01T10:31:46.391Z,14.43
2022-11-01T10:34:36.226Z,14.98
2022-11-01T10:37:47.296Z,14.10
2022-11-01T10:40:34.979Z,13.73
2022-11-01T10:43:06.225Z,12.18
2022-11-01T10:45:33.602Z,13.55
2022-11-01T10:48:01.269Z,14.10
2022-11-01T10:50:30.694Z,14.68
2022-11-01T10:53:03.957Z,17.17
2022-11-01T10:55:43.660Z,18.88
2022-11-01T10:58:33.446Z,19.58
2022-11-01T11:01:07.186Z,17.80
2022-11-01T11:03:34.812Z,19.95
2022-11-01T11:06:08.570Z,20.50
2022-11-01T11:08:38.676Z,21.10
2022-11-01T11:11:14.448Z,18.88
2022-11-01T11:16:47.564Z,18.58
2022-11-01T11:19:22.079Z,17.85
2022-11-01T11:21:52.338Z,18.98
2022-11-01T11:24:33.102Z,18.70
2022-11-01T11:27:04.170Z,20.00
2022-11-01T11:29:49.502Z,18.58
2022-11-01T11:32:29.109Z,19.67
2022-11-01T11:35:24.669Z,18.95
2022-11-01T11:38:06.276Z,17.98
2022-11-01T11:40:42.741Z,18.00
2022-11-01T11:46:05.081Z,17.45
2022-11-01T11:48:32.691Z,19.08
2022-11-01T11:51:04.976Z,20.63
2022-11-01T11:53:33.477Z,21.98
2022-11-01T11:56:11.938Z,20.38
2022-11-01T11:58:52.046Z,20.95
2022-11-01T12:01:28.888Z,21.85
2022-11-01T12:04:08.654Z,21.10
2022-11-01T12:06:43.485Z,19.52
2022-11-01T12:09:43.752Z,17.80
2022-11-01T12:12:26.592Z,17.50
2022-11-01T12:14:56.168Z,19.90
2022-11-01T12:17:35.161Z,19.67
2022-11-01T12:20:20.269Z,19.63
2022-11-01T12:23:32.072Z,21.30
2022-11-01T12:26:12.503Z,21.05
2022-11-01T12:29:01.684Z,20.67
2022-11-01T12:31:31.637Z,21.27
2022-11-01T12:34:24.826Z,20.27
2022-11-01T12:37:07.690Z,19.95
2022-11-01T12:39:52.584Z,19.90
2022-11-01T12:42:37.798Z,18.45
2022-11-01T12:45:22.472Z,17.80
2022-11-01T12:48:01.072Z,18.42
2022-11-01T12:51:01.477Z,17.63
2022-11-01T12:53:42.368Z,20.02
2022-11-01T12:56:09.958Z,19.45
2022-11-01T12:58:37.108Z,20.40
2022-11-01T13:01:41.532Z,19.95
2022-11-01T13:04:51.637Z,17.35
2022-11-01T13:07:24.521Z,17.30
2022-11-01T13:10:38.383Z,16.15
2022-11-01T13:13:33.014Z,17.77
2022-11-01T13:16:28.703Z,18.98
2022-11-01T13:19:13.173Z,16.70
2022-11-01T13:22:06.877Z,13.50
2022-11-01T13:24:52.974Z,10.27
2022-11-01T13:27:48.761Z,7.63
2022-11-01T13:30:19.957Z,7.28
2022-11-01T13:33:11.397Z,7.55
2022-11-01T13:36:13.394Z,7.45
2022-11-01T13:39:25.521Z,7.25
2022-11-01T13:42:16.322Z,7.63
2022-11-01T13:45:35.911Z,8.02
2022-11-01T13:48:24.132Z,7.60
2022-11-01T13:51:34.024Z,7.55
2022-11-01T13:54:28.340Z,7.88
2022-11-01T13:57:09.112Z,7.65
2022-11-01T13:59:45.102Z,7.60
2022-11-01T14:02:27.841Z,7.90
2022-11-01T14:05:09.906Z,8.57
2022-11-01T14:07:37.986Z,8.35
2022-11-01T14:10:22.537Z,7.60
2022-11-01T14:13:07.844Z,7.75
2022-11-01T14:15:57.367Z,8.38
2022-11-01T14:18:24.919Z,8.23
2022-11-01T14:20:56.855Z,8.10
2022-11-01T14:23:29.648Z,8.05
2022-11-01T14:26:18.550Z,7.97
2022-11-01T14:28:51.291Z,8.00
2022-11-01T14:31:24.830Z,7.97
2022-11-01T14:33:57.414Z,7.53
2022-11-01T14:36:34.132Z,7.85
2022-11-01T14:39:17.790Z,7.70
2022-11-01T14:41:48.602Z,8.13
2022-11-01T14:44:36.768Z,8.82
2022-11-01T14:47:23.861Z,7.72
2022-11-01T14:49:58.194Z,7.57
2022-11-01T14:52:50.935Z,8.25
2022-11-01T14:55:25.065Z,6.55
2022-11-01T14:58:09.457Z,7.28
2022-11-01T15:00:37.448Z,7.60
2022-11-01T15:03:08.525Z,7.82
2022-11-01T15:05:48.798Z,7.93
2022-11-01T15:08:38.110Z,7.03
2022-11-01T15:11:06.456Z,7.05
2022-11-01T15:13:40.853Z,8.30
2022-11-01T15:16:35.467Z,7.28
2022-11-01T15:19:10.400Z,6.82
2022-11-01T15:21:46.971Z,6.60
2022-11-01T15:24:25.071Z,7.10
2022-11-01T15:26:53.904Z,7.00
2022-11-01T15:29:24.936Z,7.32
2022-11-01T15:32:01.574Z,7.18
2022-11-01T15:34:32.094Z,7.55
2022-11-01T15:37:10.495Z,7.57
2022-11-01T15:39:38.055Z,7.68
2022-11-01T15:42:16.030Z,7.88
2022-11-01T15:44:46.095Z,7.70
2022-11-01T15:47:22.605Z,8.75
2022-11-01T15:49:55.035Z,8.23
2022-11-01T15:52:26.871Z,8.80
2022-11-01T15:55:10.243Z,7.40
2022-11-01T15:57:53.233Z,7.82
2022-11-01T16:00:29.011Z,8.25
2022-11-01T16:05:59.725Z,8.60
2022-11-01T16:08:39.830Z,8.52
2022-11-01T16:11:07.687Z,7.93
2022-11-01T16:13:37.027Z,7.40
2022-11-01T16:16:07.970Z,8.27
2022-11-01T16:18:37.622Z,7.57
2022-11-01T16:21:29.733Z,8.27
2022-11-01T16:24:09.946Z,8.98
2022-11-01T16:27:03.698Z,9.98
2022-11-01T16:29:50.278Z,9.65
2022-11-01T16:32:28.812Z,8.93
2022-11-01T16:34:56.328Z,10.52
2022-11-01T16:37:32.803Z,9.98
2022-11-01T16:40:29.398Z,10.30
2022-11-01T16:45:25.380Z,9.75
2022-11-01T16:47:59.457Z,12.50
2022-11-01T16:50:27.063Z,13.13
2022-11-01T16:52:55.563Z,14.10
2022-11-01T16:55:27.241Z,12.85
2022-11-01T16:57:56.689Z,13.25
2022-11-01T17:00:24.247Z,13.48
2022-11-01T17:02:51.898Z,11.60
2022-11-01T17:05:24.169Z,11.82
2022-11-01T17:07:51.592Z,14.15
2022-11-01T17:10:22.838Z,12.60
2022-11-01T17:12:50.032Z,11.52
2022-11-01T17:15:18.292Z,12.18
2022-11-01T17:17:48.994Z,12.20
2022-11-01T17:20:26.554Z,12.40
2022-11-01T17:22:58.108Z,12.98
2022-11-01T17:25:30.453Z,12.60
2022-11-01T17:27:58.177Z,11.88
2022-11-01T17:30:25.454Z,13.07
2022-11-01T17:32:53.058Z,13.52
2022-11-01T17:35:24.340Z,12.98
2022-11-01T17:37:56.160Z,12.18
2022-11-01T17:40:27.696Z,14.10
2022-11-01T17:42:56.529Z,13.45
2022-11-01T17:45:24.304Z,12.40
2022-11-01T17:47:55.951Z,13.75
2022-11-01T17:50:23.667Z,13.30
2022-11-01T17:52:51.483Z,11.68
2022-11-01T17:55:19.314Z,12.90
2022-11-01T17:57:48.722Z,13.50
2022-11-01T18:00:17.406Z,12.52
2022-11-01T18:02:45.407Z,13.77
2022-11-01T18:05:14.279Z,12.35
2022-11-01T18:07:45.750Z,14.07
2022-11-01T18:10:37.638Z,12.57
2022-11-01T18:13:05.274Z,12.75
2022-11-01T18:15:44.471Z,13.10
2022-11-01T18:18:43.369Z,12.98
2022-11-01T18:21:39.226Z,13.57
2022-11-01T18:24:22.277Z,15.32
2022-11-01T18:26:54.796Z,15.90
2022-11-01T18:29:24.054Z,15.98
2022-11-01T18:32:12.700Z,14.70
2022-11-01T18:35:01.912Z,14.57
2022-11-01T18:37:46.479Z,15.15
2022-11-01T18:40:25.097Z,14.05
2022-11-01T18:42:55.727Z,13.52
2022-11-01T18:45:33.034Z,13.23
2022-11-01T18:48:25.999Z,13.25
2022-11-01T18:51:06.169Z,13.10
2022-11-01T18:53:35.158Z,12.73
2022-11-01T18:56:30.050Z,13.75
2022-11-01T18:59:00.890Z,14.20
2022-11-01T19:01:32.272Z,13.40
2022-11-01T19:04:21.911Z,12.90
2022-11-01T19:06:50.444Z,13.63
2022-11-01T19:09:25.528Z,12.85
2022-11-01T19:12:13.105Z,13.38
2022-11-01T19:14:42.001Z,13.27
2022-11-01T19:17:31.100Z,13.23
2022-11-01T19:20:00.328Z,13.85
2022-11-01T19:22:41.219Z,15.85
2022-11-01T19:25:22.111Z,16.92
2022-11-01T19:27:55.778Z,15.90
2022-11-01T19:30:31.204Z,15.82
2022-11-01T19:33:40.808Z,16.05
2022-11-01T19:36:54.158Z,15.55
2022-11-01T19:39:32.834Z,14.38
2022-11-01T19:42:26.911Z,15.95
2022-11-01T19:45:15.515Z,14.63
2022-11-01T19:47:50.444Z,15.20
2022-11-01T19:50:39.521Z,14.52
2022-11-01T19:53:34.347Z,15.35
2022-11-01T19:56:10.391Z,14.32
2022-11-01T19:58:50.878Z,14.82
2022-11-01T20:01:21.301Z,14.45
2022-11-01T20:04:02.974Z,15.18
2022-11-01T20:06:48.662Z,14.27
2022-11-01T20:09:40.462Z,15.43
2022-11-01T20:12:10.149Z,14.48
2022-11-01T20:14:39.871Z,15.00
2022-11-01T20:17:30.667Z,18.27
2022-11-01T20:19:58.905Z,19.85
2022-11-01T20:22:28.718Z,20.55
2022-11-01T20:24:57.207Z,18.38
2022-11-01T20:27:26.651Z,18.23
2022-11-01T20:29:55.155Z,16.30
2022-11-01T20:32:23.098Z,15.90
2022-11-01T20:34:52.956Z,14.98
2022-11-01T20:37:28.353Z,14.48
2022-11-01T20:42:24.864Z,12.80
2022-11-01T20:44:52.901Z,13.50
2022-11-01T20:47:21.111Z,13.43
2022-11-01T20:49:48.700Z,13.57
2022-11-01T20:55:04.284Z,13.60
2022-11-01T20:57:31.572Z,13.50
2022-11-01T20:59:59.547Z,15.75
2022-11-01T21:02:28.937Z,13.88
2022-11-01T21:05:22.583Z,13.07
2022-11-01T21:07:55.774Z,14.02
2022-11-01T21:10:37.037Z,14.43
2022-11-01T21:13:23.497Z,13.75
2022-11-01T21:15:51.934Z,15.27
2022-11-01T21:18:19.214Z,14.50
2022-11-01T21:20:49.230Z,14.93
2022-11-01T21:23:33.010Z,15.20
2022-11-01T21:26:07.247Z,15.75
2022-11-01T21:28:55.110Z,16.45
2022-11-01T21:31:31.714Z,16.65
2022-11-01T21:34:10.141Z,16.73
2022-11-01T21:36:48.187Z,16.67
2022-11-01T21:39:27.172Z,16.92
2022-11-01T21:42:33.946Z,17.77
2022-11-01T21:45:15.538Z,18.00
2022-11-01T21:47:45.648Z,19.48
2022-11-01T21:50:12.965Z,18.60
2022-11-01T21:52:40.282Z,18.67
2022-11-01T21:55:07.880Z,18.55
2022-11-01T21:57:34.971Z,17.27
2022-11-01T22:00:02.019Z,17.67
2022-11-01T22:02:29.229Z,17.13
2022-11-01T22:04:56.397Z,17.23
2022-11-01T22:07:23.456Z,19.05
2022-11-01T22:09:50.558Z,18.92
2022-11-01T22:12:17.887Z,17.17
2022-11-01T22:14:44.931Z,17.67
2022-11-01T22:17:11.980Z,17.15
2022-11-01T22:19:39.040Z,17.77
2022-11-01T22:22:06.120Z,16.98
2022-11-01T22:24:33.243Z,17.83
2022-11-01T22:27:00.375Z,17.45
2022-11-01T22:29:27.437Z,19.35
2022-11-01T22:31:54.610Z,17.00
2022-11-01T22:34:21.821Z,16.83
2022-11-01T22:36:49.044Z,16.42
2022-11-01T22:39:27.858Z,16.65
2022-11-01T22:41:55.084Z,17.77
2022-11-01T22:44:32.288Z,18.35
2022-11-01T22:47:03.126Z,17.17
2022-11-01T22:49:45.505Z,16.15
2022-11-01T22:52:34.075Z,15.85
2022-11-01T22:55:13.311Z,16.25
2022-11-01T22:57:48.997Z,13.90
2022-11-01T23:00:37.103Z,14.35
2022-11-01T23:03:28.173Z,14.27
2022-11-01T23:05:59.836Z,13.93
2022-11-01T23:08:34.936Z,12.45
2022-11-01T23:11:03.335Z,14.65
2022-11-01T23:13:57.723Z,10.90
2022-11-01T23:16:37.137Z,11.93
2022-11-01T23:19:11.257Z,11.45
2022-11-01T23:21:38.406Z,12.80
2022-11-01T23:24:08.053Z,13.82
2022-11-01T23:26:35.119Z,13.38
2022-11-01T23:29:02.567Z,12.70
2022-11-01T23:31:30.851Z,13.00
2022-11-01T23:33:58.025Z,14.15
2022-11-01T23:36:31.630Z,14.23
2022-11-01T23:39:09.016Z,13.40
2022-11-01T23:41:53.728Z,12.57
2022-11-01T23:44:39.395Z,13.45
2022-11-01T23:47:26.771Z,13.73
2022-11-01T23:50:02.777Z,13.40
2022-11-01T23:52:43.478Z,13.23
2022-11-01T23:55:40.115Z,14.98
2022-11-01T23:58:26.790Z,12.93
